sensor_id;sensor_type;location;lat;lon;timestamp;P1;durP1;ratioP1;P2;durP2;ratioP2
6255;SDS011;3161;48.794;9.784;2023-06-22T00:01:20;7.33;;;5.87;;
6255;SDS011;3161;48.794;9.784;2023-06-22T00:03:50;10.90;;;5.80;;
6255;SDS011;3161;48.794;9.784;2023-06-22T00:06:18;11.53;;;6.33;;
6255;SDS011;3161;48.794;9.784;2023-06-22T00:08:46;7.37;;;5.50;;
6255;SDS011;3161;48.794;9.784;2023-06-22T00:11:13;8.80;;;6.27;;
6255;SDS011;3161;48.794;9.784;2023-06-22T00:13:41;9.07;;;7.17;;
6255;SDS011;3161;48.794;9.784;2023-06-22T00:16:08;8.20;;;5.70;;
6255;SDS011;3161;48.794;9.784;2023-06-22T00:18:36;10.73;;;6.50;;
6255;SDS011;3161;48.794;9.784;2023-06-22T00:21:03;14.37;;;6.43;;
6255;SDS011;3161;48.794;9.784;2023-06-22T00:23:32;9.47;;;6.33;;
6255;SDS011;3161;48.794;9.784;2023-06-22T00:26:00;10.80;;;6.63;;
6255;SDS011;3161;48.794;9.784;2023-06-22T00:28:27;8.77;;;6.30;;
6255;SDS011;3161;48.794;9.784;2023-06-22T00:30:55;9.00;;;6.40;;
6255;SDS011;3161;48.794;9.784;2023-06-22T00:33:22;8.80;;;6.40;;
6255;SDS011;3161;48.794;9.784;2023-06-22T00:35:50;8.10;;;6.27;;
6255;SDS011;3161;48.794;9.784;2023-06-22T00:38:18;8.13;;;6.00;;
6255;SDS011;3161;48.794;9.784;2023-06-22T00:40:46;13.87;;;6.77;;
6255;SDS011;3161;48.794;9.784;2023-06-22T00:43:14;16.57;;;7.00;;
6255;SDS011;3161;48.794;9.784;2023-06-22T00:45:41;8.50;;;6.53;;
6255;SDS011;3161;48.794;9.784;2023-06-22T00:48:09;8.37;;;6.23;;
6255;SDS011;3161;48.794;9.784;2023-06-22T00:50:38;10.77;;;6.70;;
6255;SDS011;3161;48.794;9.784;2023-06-22T00:53:08;8.17;;;6.33;;
6255;SDS011;3161;48.794;9.784;2023-06-22T00:55:38;8.83;;;5.80;;
6255;SDS011;3161;48.794;9.784;2023-06-22T00:58:10;7.63;;;5.97;;
6255;SDS011;3161;48.794;9.784;2023-06-22T01:00:38;7.20;;;6.13;;
6255;SDS011;3161;48.794;9.784;2023-06-22T01:03:07;11.47;;;6.20;;
6255;SDS011;3161;48.794;9.784;2023-06-22T01:05:35;8.40;;;6.00;;
6255;SDS011;3161;48.794;9.784;2023-06-22T01:10:55;8.40;;;6.33;;
6255;SDS011;3161;48.794;9.784;2023-06-22T01:13:38;14.93;;;6.33;;
6255;SDS011;3161;48.794;9.784;2023-06-22T01:19:13;6.80;;;6.13;;
6255;SDS011;3161;48.794;9.784;2023-06-22T01:21:42;12.10;;;6.43;;
6255;SDS011;3161;48.794;9.784;2023-06-22T01:26:43;8.23;;;6.00;;
6255;SDS011;3161;48.794;9.784;2023-06-22T01:29:28;9.20;;;6.57;;
6255;SDS011;3161;48.794;9.784;2023-06-22T01:31:56;8.40;;;6.50;;
6255;SDS011;3161;48.794;9.784;2023-06-22T01:34:25;9.50;;;6.53;;
6255;SDS011;3161;48.794;9.784;2023-06-22T01:36:55;14.80;;;7.23;;
6255;SDS011;3161;48.794;9.784;2023-06-22T01:39:23;11.13;;;6.73;;
6255;SDS011;3161;48.794;9.784;2023-06-22T01:41:52;8.63;;;5.93;;
6255;SDS011;3161;48.794;9.784;2023-06-22T01:44:21;11.13;;;5.93;;
6255;SDS011;3161;48.794;9.784;2023-06-22T01:46:50;8.30;;;6.20;;
6255;SDS011;3161;48.794;9.784;2023-06-22T01:49:18;15.93;;;7.43;;
6255;SDS011;3161;48.794;9.784;2023-06-22T01:51:46;9.83;;;6.40;;
6255;SDS011;3161;48.794;9.784;2023-06-22T01:54:14;8.43;;;5.90;;
6255;SDS011;3161;48.794;9.784;2023-06-22T01:56:41;8.47;;;6.33;;
6255;SDS011;3161;48.794;9.784;2023-06-22T01:59:18;8.53;;;6.00;;
6255;SDS011;3161;48.794;9.784;2023-06-22T02:02:06;7.30;;;5.80;;
6255;SDS011;3161;48.794;9.784;2023-06-22T02:04:20;6.83;;;5.77;;
6255;SDS011;3161;48.794;9.784;2023-06-22T02:06:51;10.00;;;6.30;;
6255;SDS011;3161;48.794;9.784;2023-06-22T02:09:20;8.00;;;5.43;;
6255;SDS011;3161;48.794;9.784;2023-06-22T02:11:50;7.97;;;6.20;;
6255;SDS011;3161;48.794;9.784;2023-06-22T02:14:21;12.80;;;6.73;;
6255;SDS011;3161;48.794;9.784;2023-06-22T02:16:51;8.10;;;5.97;;
6255;SDS011;3161;48.794;9.784;2023-06-22T02:19:22;7.30;;;5.90;;
6255;SDS011;3161;48.794;9.784;2023-06-22T02:21:51;9.03;;;5.90;;
6255;SDS011;3161;48.794;9.784;2023-06-22T02:24:18;7.53;;;6.33;;
6255;SDS011;3161;48.794;9.784;2023-06-22T02:26:48;10.47;;;6.03;;
6255;SDS011;3161;48.794;9.784;2023-06-22T02:29:15;10.37;;;6.50;;
6255;SDS011;3161;48.794;9.784;2023-06-22T02:31:43;7.20;;;5.40;;
6255;SDS011;3161;48.794;9.784;2023-06-22T02:34:11;9.57;;;6.53;;
6255;SDS011;3161;48.794;9.784;2023-06-22T02:36:40;8.10;;;6.03;;
6255;SDS011;3161;48.794;9.784;2023-06-22T02:39:09;8.50;;;5.63;;
6255;SDS011;3161;48.794;9.784;2023-06-22T02:41:37;9.70;;;5.77;;
6255;SDS011;3161;48.794;9.784;2023-06-22T02:44:04;8.17;;;6.17;;
6255;SDS011;3161;48.794;9.784;2023-06-22T02:46:32;14.17;;;6.10;;
6255;SDS011;3161;48.794;9.784;2023-06-22T02:48:59;12.60;;;6.70;;
6255;SDS011;3161;48.794;9.784;2023-06-22T02:51:27;7.40;;;5.80;;
6255;SDS011;3161;48.794;9.784;2023-06-22T02:53:54;8.73;;;6.57;;
6255;SDS011;3161;48.794;9.784;2023-06-22T02:56:23;9.37;;;6.13;;
6255;SDS011;3161;48.794;9.784;2023-06-22T02:58:51;9.30;;;6.97;;
6255;SDS011;3161;48.794;9.784;2023-06-22T03:01:18;11.90;;;5.87;;
6255;SDS011;3161;48.794;9.784;2023-06-22T03:03:48;8.40;;;5.83;;
6255;SDS011;3161;48.794;9.784;2023-06-22T03:06:15;9.23;;;6.40;;
6255;SDS011;3161;48.794;9.784;2023-06-22T03:08:44;10.40;;;6.17;;
6255;SDS011;3161;48.794;9.784;2023-06-22T03:11:12;12.13;;;6.97;;
6255;SDS011;3161;48.794;9.784;2023-06-22T03:13:39;9.07;;;6.37;;
6255;SDS011;3161;48.794;9.784;2023-06-22T03:16:07;7.63;;;5.80;;
6255;SDS011;3161;48.794;9.784;2023-06-22T03:18:34;11.97;;;6.67;;
6255;SDS011;3161;48.794;9.784;2023-06-22T03:21:02;9.57;;;6.93;;
6255;SDS011;3161;48.794;9.784;2023-06-22T03:23:29;11.03;;;6.70;;
6255;SDS011;3161;48.794;9.784;2023-06-22T03:25:57;8.87;;;6.60;;
6255;SDS011;3161;48.794;9.784;2023-06-22T03:28:24;11.90;;;6.63;;
6255;SDS011;3161;48.794;9.784;2023-06-22T03:30:52;15.17;;;6.60;;
6255;SDS011;3161;48.794;9.784;2023-06-22T03:33:19;12.40;;;6.77;;
6255;SDS011;3161;48.794;9.784;2023-06-22T03:35:47;11.13;;;6.20;;
6255;SDS011;3161;48.794;9.784;2023-06-22T03:38:18;10.30;;;6.17;;
6255;SDS011;3161;48.794;9.784;2023-06-22T03:40:46;7.97;;;6.00;;
6255;SDS011;3161;48.794;9.784;2023-06-22T03:43:14;9.20;;;6.33;;
6255;SDS011;3161;48.794;9.784;2023-06-22T03:45:41;11.57;;;7.27;;
6255;SDS011;3161;48.794;9.784;2023-06-22T03:48:11;13.70;;;6.90;;
6255;SDS011;3161;48.794;9.784;2023-06-22T03:50:39;9.77;;;6.73;;
6255;SDS011;3161;48.794;9.784;2023-06-22T03:53:06;7.83;;;6.67;;
6255;SDS011;3161;48.794;9.784;2023-06-22T03:55:34;10.93;;;6.27;;
6255;SDS011;3161;48.794;9.784;2023-06-22T03:58:01;9.33;;;6.70;;
6255;SDS011;3161;48.794;9.784;2023-06-22T04:00:36;7.13;;;6.27;;
6255;SDS011;3161;48.794;9.784;2023-06-22T04:02:59;12.73;;;6.93;;
6255;SDS011;3161;48.794;9.784;2023-06-22T04:05:27;9.67;;;6.77;;
6255;SDS011;3161;48.794;9.784;2023-06-22T04:07:54;10.33;;;6.40;;
6255;SDS011;3161;48.794;9.784;2023-06-22T04:10:22;12.73;;;7.53;;
6255;SDS011;3161;48.794;9.784;2023-06-22T04:12:50;9.30;;;6.70;;
6255;SDS011;3161;48.794;9.784;2023-06-22T04:15:17;10.90;;;7.33;;
6255;SDS011;3161;48.794;9.784;2023-06-22T04:17:45;9.57;;;6.93;;
6255;SDS011;3161;48.794;9.784;2023-06-22T04:20:12;8.63;;;6.50;;
6255;SDS011;3161;48.794;9.784;2023-06-22T04:22:40;11.77;;;7.33;;
6255;SDS011;3161;48.794;9.784;2023-06-22T04:25:07;11.00;;;6.63;;
6255;SDS011;3161;48.794;9.784;2023-06-22T04:27:35;11.80;;;6.40;;
6255;SDS011;3161;48.794;9.784;2023-06-22T04:30:06;10.40;;;6.13;;
6255;SDS011;3161;48.794;9.784;2023-06-22T04:33:10;16.57;;;7.73;;
6255;SDS011;3161;48.794;9.784;2023-06-22T04:35:41;14.20;;;6.73;;
6255;SDS011;3161;48.794;9.784;2023-06-22T04:38:11;16.03;;;9.10;;
6255;SDS011;3161;48.794;9.784;2023-06-22T04:44:01;11.60;;;8.10;;
6255;SDS011;3161;48.794;9.784;2023-06-22T04:46:31;12.93;;;8.37;;
6255;SDS011;3161;48.794;9.784;2023-06-22T04:49:00;11.80;;;8.17;;
6255;SDS011;3161;48.794;9.784;2023-06-22T04:51:27;12.93;;;8.43;;
6255;SDS011;3161;48.794;9.784;2023-06-22T04:53:56;12.37;;;8.17;;
6255;SDS011;3161;48.794;9.784;2023-06-22T04:56:26;10.67;;;8.07;;
6255;SDS011;3161;48.794;9.784;2023-06-22T04:58:56;8.67;;;7.73;;
6255;SDS011;3161;48.794;9.784;2023-06-22T05:01:24;10.83;;;8.27;;
6255;SDS011;3161;48.794;9.784;2023-06-22T05:03:51;11.33;;;8.13;;
6255;SDS011;3161;48.794;9.784;2023-06-22T05:06:21;15.13;;;8.60;;
6255;SDS011;3161;48.794;9.784;2023-06-22T05:08:52;9.43;;;7.33;;
6255;SDS011;3161;48.794;9.784;2023-06-22T05:11:26;10.57;;;7.17;;
6255;SDS011;3161;48.794;9.784;2023-06-22T05:13:55;10.07;;;7.70;;
6255;SDS011;3161;48.794;9.784;2023-06-22T05:16:23;10.30;;;7.70;;
6255;SDS011;3161;48.794;9.784;2023-06-22T05:18:52;9.77;;;6.40;;
6255;SDS011;3161;48.794;9.784;2023-06-22T05:21:24;8.73;;;7.00;;
6255;SDS011;3161;48.794;9.784;2023-06-22T05:23:53;9.57;;;7.20;;
6255;SDS011;3161;48.794;9.784;2023-06-22T05:26:21;8.70;;;6.93;;
6255;SDS011;3161;48.794;9.784;2023-06-22T05:28:49;10.20;;;7.47;;
6255;SDS011;3161;48.794;9.784;2023-06-22T05:34:39;12.73;;;6.33;;
6255;SDS011;3161;48.794;9.784;2023-06-22T05:37:06;14.60;;;6.73;;
6255;SDS011;3161;48.794;9.784;2023-06-22T05:39:35;9.63;;;6.13;;
6255;SDS011;3161;48.794;9.784;2023-06-22T05:42:06;13.70;;;6.40;;
6255;SDS011;3161;48.794;9.784;2023-06-22T05:44:34;11.47;;;6.17;;
6255;SDS011;3161;48.794;9.784;2023-06-22T05:47:03;10.77;;;6.70;;
6255;SDS011;3161;48.794;9.784;2023-06-22T05:49:31;7.33;;;5.90;;
6255;SDS011;3161;48.794;9.784;2023-06-22T05:51:58;9.43;;;6.27;;
6255;SDS011;3161;48.794;9.784;2023-06-22T05:54:29;6.87;;;5.53;;
6255;SDS011;3161;48.794;9.784;2023-06-22T05:56:57;9.90;;;6.00;;
6255;SDS011;3161;48.794;9.784;2023-06-22T05:59:24;10.60;;;5.20;;
6255;SDS011;3161;48.794;9.784;2023-06-22T06:01:52;6.80;;;5.37;;
6255;SDS011;3161;48.794;9.784;2023-06-22T06:04:19;9.00;;;5.13;;
6255;SDS011;3161;48.794;9.784;2023-06-22T06:06:47;7.08;;;4.87;;
6255;SDS011;3161;48.794;9.784;2023-06-22T06:09:14;7.72;;;5.50;;
6255;SDS011;3161;48.794;9.784;2023-06-22T06:11:42;10.07;;;5.20;;
6255;SDS011;3161;48.794;9.784;2023-06-22T06:14:09;8.33;;;4.58;;
6255;SDS011;3161;48.794;9.784;2023-06-22T06:16:37;6.20;;;4.40;;
6255;SDS011;3161;48.794;9.784;2023-06-22T06:19:04;9.40;;;5.00;;
6255;SDS011;3161;48.794;9.784;2023-06-22T06:21:32;6.85;;;4.58;;
6255;SDS011;3161;48.794;9.784;2023-06-22T06:23:59;6.37;;;4.60;;
6255;SDS011;3161;48.794;9.784;2023-06-22T06:26:27;9.80;;;4.87;;
6255;SDS011;3161;48.794;9.784;2023-06-22T06:28:55;6.42;;;4.05;;
6255;SDS011;3161;48.794;9.784;2023-06-22T06:31:23;6.22;;;4.45;;
6255;SDS011;3161;48.794;9.784;2023-06-22T06:33:52;8.10;;;3.87;;
6255;SDS011;3161;48.794;9.784;2023-06-22T06:36:20;5.92;;;4.42;;
6255;SDS011;3161;48.794;9.784;2023-06-22T06:38:48;6.37;;;3.80;;
6255;SDS011;3161;48.794;9.784;2023-06-22T06:41:16;12.40;;;3.87;;
6255;SDS011;3161;48.794;9.784;2023-06-22T06:43:43;8.48;;;3.87;;
6255;SDS011;3161;48.794;9.784;2023-06-22T06:46:11;7.80;;;3.92;;
6255;SDS011;3161;48.794;9.784;2023-06-22T06:48:38;8.08;;;3.98;;
6255;SDS011;3161;48.794;9.784;2023-06-22T06:51:06;6.92;;;4.00;;
6255;SDS011;3161;48.794;9.784;2023-06-22T06:53:36;7.33;;;3.50;;
6255;SDS011;3161;48.794;9.784;2023-06-22T06:56:04;5.05;;;3.58;;
6255;SDS011;3161;48.794;9.784;2023-06-22T06:58:32;7.35;;;3.60;;
6255;SDS011;3161;48.794;9.784;2023-06-22T07:00:59;4.37;;;3.60;;
6255;SDS011;3161;48.794;9.784;2023-06-22T07:03:27;7.08;;;3.27;;
6255;SDS011;3161;48.794;9.784;2023-06-22T07:05:54;4.37;;;3.20;;
6255;SDS011;3161;48.794;9.784;2023-06-22T07:08:22;7.67;;;2.72;;
6255;SDS011;3161;48.794;9.784;2023-06-22T07:10:49;9.20;;;3.40;;
6255;SDS011;3161;48.794;9.784;2023-06-22T07:13:18;5.42;;;2.98;;
6255;SDS011;3161;48.794;9.784;2023-06-22T07:15:46;4.08;;;2.85;;
6255;SDS011;3161;48.794;9.784;2023-06-22T07:18:14;7.00;;;2.83;;
6255;SDS011;3161;48.794;9.784;2023-06-22T07:20:41;2.90;;;2.62;;
6255;SDS011;3161;48.794;9.784;2023-06-22T07:23:09;7.22;;;2.45;;
6255;SDS011;3161;48.794;9.784;2023-06-22T07:25:36;7.28;;;3.00;;
6255;SDS011;3161;48.794;9.784;2023-06-22T07:28:04;3.98;;;2.72;;
6255;SDS011;3161;48.794;9.784;2023-06-22T07:30:33;8.95;;;2.60;;
6255;SDS011;3161;48.794;9.784;2023-06-22T07:33:01;9.00;;;2.42;;
6255;SDS011;3161;48.794;9.784;2023-06-22T07:35:30;7.22;;;2.40;;
6255;SDS011;3161;48.794;9.784;2023-06-22T07:37:57;10.98;;;2.87;;
6255;SDS011;3161;48.794;9.784;2023-06-22T07:40:26;5.03;;;2.70;;
6255;SDS011;3161;48.794;9.784;2023-06-22T07:42:53;7.65;;;2.37;;
6255;SDS011;3161;48.794;9.784;2023-06-22T07:45:21;5.12;;;2.90;;
6255;SDS011;3161;48.794;9.784;2023-06-22T07:47:49;6.40;;;2.80;;
6255;SDS011;3161;48.794;9.784;2023-06-22T07:50:16;9.58;;;3.60;;
6255;SDS011;3161;48.794;9.784;2023-06-22T07:52:44;5.03;;;2.40;;
6255;SDS011;3161;48.794;9.784;2023-06-22T07:55:13;5.85;;;2.65;;
6255;SDS011;3161;48.794;9.784;2023-06-22T07:57:40;9.78;;;2.65;;
6255;SDS011;3161;48.794;9.784;2023-06-22T08:00:08;9.30;;;2.80;;
6255;SDS011;3161;48.794;9.784;2023-06-22T08:02:39;10.48;;;3.22;;
6255;SDS011;3161;48.794;9.784;2023-06-22T08:05:08;9.10;;;3.47;;
6255;SDS011;3161;48.794;9.784;2023-06-22T08:07:37;7.67;;;2.30;;
6255;SDS011;3161;48.794;9.784;2023-06-22T08:10:10;8.33;;;2.72;;
6255;SDS011;3161;48.794;9.784;2023-06-22T08:12:43;9.00;;;3.30;;
6255;SDS011;3161;48.794;9.784;2023-06-22T08:15:07;10.18;;;2.55;;
6255;SDS011;3161;48.794;9.784;2023-06-22T08:17:40;9.05;;;2.72;;
6255;SDS011;3161;48.794;9.784;2023-06-22T08:20:05;8.95;;;2.67;;
6255;SDS011;3161;48.794;9.784;2023-06-22T08:22:38;7.87;;;3.17;;
6255;SDS011;3161;48.794;9.784;2023-06-22T08:25:07;10.85;;;3.10;;
6255;SDS011;3161;48.794;9.784;2023-06-22T08:27:35;10.30;;;3.22;;
6255;SDS011;3161;48.794;9.784;2023-06-22T08:30:04;10.00;;;3.37;;
6255;SDS011;3161;48.794;9.784;2023-06-22T08:32:33;6.95;;;3.20;;
6255;SDS011;3161;48.794;9.784;2023-06-22T08:35:00;13.75;;;3.05;;
6255;SDS011;3161;48.794;9.784;2023-06-22T08:37:28;10.25;;;3.47;;
6255;SDS011;3161;48.794;9.784;2023-06-22T08:40:00;5.42;;;3.08;;
6255;SDS011;3161;48.794;9.784;2023-06-22T08:42:31;13.40;;;4.05;;
6255;SDS011;3161;48.794;9.784;2023-06-22T08:44:58;8.18;;;3.25;;
6255;SDS011;3161;48.794;9.784;2023-06-22T08:50:13;8.15;;;3.08;;
6255;SDS011;3161;48.794;9.784;2023-06-22T08:52:41;8.75;;;3.20;;
6255;SDS011;3161;48.794;9.784;2023-06-22T08:55:09;7.42;;;3.85;;
6255;SDS011;3161;48.794;9.784;2023-06-22T08:57:37;10.45;;;3.58;;
6255;SDS011;3161;48.794;9.784;2023-06-22T09:00:05;9.70;;;3.70;;
6255;SDS011;3161;48.794;9.784;2023-06-22T09:02:47;9.38;;;2.83;;
6255;SDS011;3161;48.794;9.784;2023-06-22T09:05:11;17.25;;;4.30;;
6255;SDS011;3161;48.794;9.784;2023-06-22T09:07:39;16.37;;;3.52;;
6255;SDS011;3161;48.794;9.784;2023-06-22T09:10:06;14.35;;;3.72;;
6255;SDS011;3161;48.794;9.784;2023-06-22T09:12:34;13.93;;;4.37;;
6255;SDS011;3161;48.794;9.784;2023-06-22T09:15:03;12.93;;;3.62;;
6255;SDS011;3161;48.794;9.784;2023-06-22T09:17:33;8.70;;;4.20;;
6255;SDS011;3161;48.794;9.784;2023-06-22T09:20:01;11.10;;;4.15;;
6255;SDS011;3161;48.794;9.784;2023-06-22T09:22:31;13.78;;;3.75;;
6255;SDS011;3161;48.794;9.784;2023-06-22T09:24:59;10.53;;;4.12;;
6255;SDS011;3161;48.794;9.784;2023-06-22T09:27:28;13.38;;;3.90;;
6255;SDS011;3161;48.794;9.784;2023-06-22T09:29:56;11.55;;;3.20;;
6255;SDS011;3161;48.794;9.784;2023-06-22T09:32:24;12.03;;;3.67;;
6255;SDS011;3161;48.794;9.784;2023-06-22T09:34:52;12.13;;;3.75;;
6255;SDS011;3161;48.794;9.784;2023-06-22T09:37:20;11.40;;;3.37;;
6255;SDS011;3161;48.794;9.784;2023-06-22T09:39:47;11.03;;;3.42;;
6255;SDS011;3161;48.794;9.784;2023-06-22T09:42:15;13.62;;;3.87;;
6255;SDS011;3161;48.794;9.784;2023-06-22T09:44:42;12.00;;;3.65;;
6255;SDS011;3161;48.794;9.784;2023-06-22T09:47:09;11.97;;;3.98;;
6255;SDS011;3161;48.794;9.784;2023-06-22T09:49:37;13.65;;;4.22;;
6255;SDS011;3161;48.794;9.784;2023-06-22T09:52:05;8.75;;;3.47;;
6255;SDS011;3161;48.794;9.784;2023-06-22T09:54:33;10.88;;;4.17;;
6255;SDS011;3161;48.794;9.784;2023-06-22T09:57:01;18.90;;;4.10;;
6255;SDS011;3161;48.794;9.784;2023-06-22T09:59:28;7.70;;;4.17;;
6255;SDS011;3161;48.794;9.784;2023-06-22T10:01:56;15.00;;;4.47;;
6255;SDS011;3161;48.794;9.784;2023-06-22T10:04:23;15.20;;;4.03;;
6255;SDS011;3161;48.794;9.784;2023-06-22T10:06:51;12.03;;;4.20;;
6255;SDS011;3161;48.794;9.784;2023-06-22T10:09:19;15.98;;;4.40;;
6255;SDS011;3161;48.794;9.784;2023-06-22T10:11:47;16.60;;;4.60;;
6255;SDS011;3161;48.794;9.784;2023-06-22T10:14:15;13.10;;;4.35;;
6255;SDS011;3161;48.794;9.784;2023-06-22T10:16:42;8.60;;;4.00;;
6255;SDS011;3161;48.794;9.784;2023-06-22T10:19:10;13.18;;;4.97;;
6255;SDS011;3161;48.794;9.784;2023-06-22T10:21:37;13.00;;;4.10;;
6255;SDS011;3161;48.794;9.784;2023-06-22T10:24:05;19.15;;;5.00;;
6255;SDS011;3161;48.794;9.784;2023-06-22T10:26:33;9.68;;;4.35;;
6255;SDS011;3161;48.794;9.784;2023-06-22T10:29:01;12.07;;;4.53;;
6255;SDS011;3161;48.794;9.784;2023-06-22T10:31:30;16.85;;;4.58;;
6255;SDS011;3161;48.794;9.784;2023-06-22T10:33:57;10.82;;;4.50;;
6255;SDS011;3161;48.794;9.784;2023-06-22T10:36:25;16.42;;;4.45;;
6255;SDS011;3161;48.794;9.784;2023-06-22T10:38:52;17.52;;;3.92;;
6255;SDS011;3161;48.794;9.784;2023-06-22T10:41:21;12.50;;;4.33;;
6255;SDS011;3161;48.794;9.784;2023-06-22T10:43:48;13.32;;;4.72;;
6255;SDS011;3161;48.794;9.784;2023-06-22T10:46:16;17.20;;;4.20;;
6255;SDS011;3161;48.794;9.784;2023-06-22T10:48:44;16.70;;;4.50;;
6255;SDS011;3161;48.794;9.784;2023-06-22T10:51:11;17.07;;;4.50;;
6255;SDS011;3161;48.794;9.784;2023-06-22T10:53:39;17.23;;;4.60;;
6255;SDS011;3161;48.794;9.784;2023-06-22T10:56:06;10.50;;;4.15;;
6255;SDS011;3161;48.794;9.784;2023-06-22T10:58:34;13.05;;;3.92;;
6255;SDS011;3161;48.794;9.784;2023-06-22T11:01:01;13.78;;;4.47;;
6255;SDS011;3161;48.794;9.784;2023-06-22T11:03:29;11.88;;;4.25;;
6255;SDS011;3161;48.794;9.784;2023-06-22T11:05:56;12.53;;;3.80;;
6255;SDS011;3161;48.794;9.784;2023-06-22T11:08:24;14.07;;;4.60;;
6255;SDS011;3161;48.794;9.784;2023-06-22T11:10:51;14.38;;;4.20;;
6255;SDS011;3161;48.794;9.784;2023-06-22T11:13:19;17.17;;;4.87;;
6255;SDS011;3161;48.794;9.784;2023-06-22T11:15:46;10.10;;;4.45;;
6255;SDS011;3161;48.794;9.784;2023-06-22T11:18:14;15.45;;;4.22;;
6255;SDS011;3161;48.794;9.784;2023-06-22T11:20:42;11.20;;;3.98;;
6255;SDS011;3161;48.794;9.784;2023-06-22T11:23:09;11.53;;;4.03;;
6255;SDS011;3161;48.794;9.784;2023-06-22T11:25:38;9.25;;;4.37;;
6255;SDS011;3161;48.794;9.784;2023-06-22T11:28:07;15.00;;;4.20;;
6255;SDS011;3161;48.794;9.784;2023-06-22T11:30:35;11.60;;;4.58;;
6255;SDS011;3161;48.794;9.784;2023-06-22T11:33:02;11.97;;;4.10;;
6255;SDS011;3161;48.794;9.784;2023-06-22T11:35:30;11.40;;;4.28;;
6255;SDS011;3161;48.794;9.784;2023-06-22T11:37:58;15.72;;;4.33;;
6255;SDS011;3161;48.794;9.784;2023-06-22T11:40:25;11.40;;;4.20;;
6255;SDS011;3161;48.794;9.784;2023-06-22T11:42:52;15.03;;;4.37;;
6255;SDS011;3161;48.794;9.784;2023-06-22T11:45:20;12.18;;;3.95;;
6255;SDS011;3161;48.794;9.784;2023-06-22T11:47:48;12.80;;;4.72;;
6255;SDS011;3161;48.794;9.784;2023-06-22T11:50:15;16.32;;;4.75;;
6255;SDS011;3161;48.794;9.784;2023-06-22T11:52:43;14.03;;;4.97;;
6255;SDS011;3161;48.794;9.784;2023-06-22T11:55:10;9.33;;;3.75;;
6255;SDS011;3161;48.794;9.784;2023-06-22T11:57:38;12.85;;;4.10;;
6255;SDS011;3161;48.794;9.784;2023-06-22T12:00:08;13.05;;;4.62;;
6255;SDS011;3161;48.794;9.784;2023-06-22T12:02:44;12.47;;;3.90;;
6255;SDS011;3161;48.794;9.784;2023-06-22T12:05:11;13.88;;;4.58;;
6255;SDS011;3161;48.794;9.784;2023-06-22T12:07:39;14.80;;;4.80;;
6255;SDS011;3161;48.794;9.784;2023-06-22T12:10:07;18.07;;;4.70;;
6255;SDS011;3161;48.794;9.784;2023-06-22T12:12:35;12.98;;;4.47;;
6255;SDS011;3161;48.794;9.784;2023-06-22T12:15:03;18.75;;;4.67;;
6255;SDS011;3161;48.794;9.784;2023-06-22T12:17:33;18.90;;;4.47;;
6255;SDS011;3161;48.794;9.784;2023-06-22T12:20:01;16.97;;;4.25;;
6255;SDS011;3161;48.794;9.784;2023-06-22T12:22:34;11.50;;;4.28;;
6255;SDS011;3161;48.794;9.784;2023-06-22T12:25:03;16.27;;;4.60;;
6255;SDS011;3161;48.794;9.784;2023-06-22T12:27:33;17.57;;;4.55;;
6255;SDS011;3161;48.794;9.784;2023-06-22T12:30:04;14.85;;;4.47;;
6255;SDS011;3161;48.794;9.784;2023-06-22T12:32:32;10.58;;;4.45;;
6255;SDS011;3161;48.794;9.784;2023-06-22T12:35:00;21.60;;;4.75;;
6255;SDS011;3161;48.794;9.784;2023-06-22T12:37:28;17.62;;;4.87;;
6255;SDS011;3161;48.794;9.784;2023-06-22T12:39:57;12.03;;;4.12;;
6255;SDS011;3161;48.794;9.784;2023-06-22T12:42:25;12.85;;;4.70;;
6255;SDS011;3161;48.794;9.784;2023-06-22T12:44:53;13.13;;;4.50;;
6255;SDS011;3161;48.794;9.784;2023-06-22T12:47:21;12.15;;;4.35;;
6255;SDS011;3161;48.794;9.784;2023-06-22T12:49:49;17.37;;;6.05;;
6255;SDS011;3161;48.794;9.784;2023-06-22T12:52:16;11.55;;;4.22;;
6255;SDS011;3161;48.794;9.784;2023-06-22T12:54:44;20.05;;;5.50;;
6255;SDS011;3161;48.794;9.784;2023-06-22T12:57:11;19.87;;;5.03;;
6255;SDS011;3161;48.794;9.784;2023-06-22T12:59:39;14.18;;;4.80;;
6255;SDS011;3161;48.794;9.784;2023-06-22T13:02:06;15.48;;;4.47;;
6255;SDS011;3161;48.794;9.784;2023-06-22T13:04:34;15.23;;;5.45;;
6255;SDS011;3161;48.794;9.784;2023-06-22T13:07:01;13.32;;;4.53;;
6255;SDS011;3161;48.794;9.784;2023-06-22T13:09:29;23.90;;;4.58;;
6255;SDS011;3161;48.794;9.784;2023-06-22T13:11:56;24.52;;;5.65;;
6255;SDS011;3161;48.794;9.784;2023-06-22T13:14:24;17.00;;;4.75;;
6255;SDS011;3161;48.794;9.784;2023-06-22T13:16:51;10.82;;;4.25;;
6255;SDS011;3161;48.794;9.784;2023-06-22T13:19:19;14.75;;;4.20;;
6255;SDS011;3161;48.794;9.784;2023-06-22T13:21:47;18.60;;;4.62;;
6255;SDS011;3161;48.794;9.784;2023-06-22T13:24:15;19.73;;;4.80;;
6255;SDS011;3161;48.794;9.784;2023-06-22T13:26:42;19.20;;;5.00;;
6255;SDS011;3161;48.794;9.784;2023-06-22T13:29:10;15.32;;;5.17;;
6255;SDS011;3161;48.794;9.784;2023-06-22T13:31:37;14.85;;;3.67;;
6255;SDS011;3161;48.794;9.784;2023-06-22T13:34:05;13.50;;;4.92;;
6255;SDS011;3161;48.794;9.784;2023-06-22T13:36:32;10.20;;;4.15;;
6255;SDS011;3161;48.794;9.784;2023-06-22T13:39:00;15.75;;;5.25;;
6255;SDS011;3161;48.794;9.784;2023-06-22T13:41:28;9.13;;;3.72;;
6255;SDS011;3161;48.794;9.784;2023-06-22T13:43:55;17.52;;;4.67;;
6255;SDS011;3161;48.794;9.784;2023-06-22T13:46:22;12.88;;;4.97;;
6255;SDS011;3161;48.794;9.784;2023-06-22T13:48:52;20.60;;;5.25;;
6255;SDS011;3161;48.794;9.784;2023-06-22T13:51:19;24.20;;;5.55;;
6255;SDS011;3161;48.794;9.784;2023-06-22T13:53:47;12.37;;;4.83;;
6255;SDS011;3161;48.794;9.784;2023-06-22T13:56:14;18.73;;;5.10;;
6255;SDS011;3161;48.794;9.784;2023-06-22T13:58:42;18.62;;;4.62;;
6255;SDS011;3161;48.794;9.784;2023-06-22T14:01:09;14.70;;;4.40;;
6255;SDS011;3161;48.794;9.784;2023-06-22T14:03:37;16.65;;;4.30;;
6255;SDS011;3161;48.794;9.784;2023-06-22T14:06:04;18.17;;;4.25;;
6255;SDS011;3161;48.794;9.784;2023-06-22T14:08:32;13.72;;;4.37;;
6255;SDS011;3161;48.794;9.784;2023-06-22T14:10:59;16.05;;;4.78;;
6255;SDS011;3161;48.794;9.784;2023-06-22T14:13:27;18.60;;;4.30;;
6255;SDS011;3161;48.794;9.784;2023-06-22T14:15:55;10.80;;;4.53;;
6255;SDS011;3161;48.794;9.784;2023-06-22T14:18:22;16.87;;;4.42;;
6255;SDS011;3161;48.794;9.784;2023-06-22T14:20:50;20.45;;;4.95;;
6255;SDS011;3161;48.794;9.784;2023-06-22T14:23:17;18.65;;;4.45;;
6255;SDS011;3161;48.794;9.784;2023-06-22T14:25:45;14.00;;;4.35;;
6255;SDS011;3161;48.794;9.784;2023-06-22T14:28:12;17.23;;;4.35;;
6255;SDS011;3161;48.794;9.784;2023-06-22T14:30:40;14.03;;;3.60;;
6255;SDS011;3161;48.794;9.784;2023-06-22T14:33:07;13.48;;;4.12;;
6255;SDS011;3161;48.794;9.784;2023-06-22T14:35:35;16.42;;;4.50;;
6255;SDS011;3161;48.794;9.784;2023-06-22T14:38:02;18.60;;;4.20;;
6255;SDS011;3161;48.794;9.784;2023-06-22T14:40:30;9.68;;;3.35;;
6255;SDS011;3161;48.794;9.784;2023-06-22T14:42:57;14.53;;;4.20;;
6255;SDS011;3161;48.794;9.784;2023-06-22T14:45:25;10.32;;;3.85;;
6255;SDS011;3161;48.794;9.784;2023-06-22T14:47:52;12.25;;;3.83;;
6255;SDS011;3161;48.794;9.784;2023-06-22T14:50:20;16.07;;;4.03;;
6255;SDS011;3161;48.794;9.784;2023-06-22T14:52:47;15.75;;;4.03;;
6255;SDS011;3161;48.794;9.784;2023-06-22T14:55:15;14.15;;;3.75;;
6255;SDS011;3161;48.794;9.784;2023-06-22T14:57:42;17.02;;;5.08;;
6255;SDS011;3161;48.794;9.784;2023-06-22T15:00:10;9.15;;;3.47;;
6255;SDS011;3161;48.794;9.784;2023-06-22T15:02:38;10.60;;;4.28;;
6255;SDS011;3161;48.794;9.784;2023-06-22T15:05:07;20.08;;;5.03;;
6255;SDS011;3161;48.794;9.784;2023-06-22T15:07:35;14.28;;;4.20;;
6255;SDS011;3161;48.794;9.784;2023-06-22T15:10:02;14.15;;;4.12;;
6255;SDS011;3161;48.794;9.784;2023-06-22T15:12:30;12.53;;;4.33;;
6255;SDS011;3161;48.794;9.784;2023-06-22T15:14:58;12.33;;;3.42;;
6255;SDS011;3161;48.794;9.784;2023-06-22T15:17:25;12.55;;;3.62;;
6255;SDS011;3161;48.794;9.784;2023-06-22T15:19:57;9.83;;;3.72;;
6255;SDS011;3161;48.794;9.784;2023-06-22T15:22:25;25.68;;;4.47;;
6255;SDS011;3161;48.794;9.784;2023-06-22T15:24:52;14.70;;;4.15;;
6255;SDS011;3161;48.794;9.784;2023-06-22T15:27:21;12.53;;;4.00;;
6255;SDS011;3161;48.794;9.784;2023-06-22T15:29:49;9.53;;;3.67;;
6255;SDS011;3161;48.794;9.784;2023-06-22T15:32:17;13.65;;;4.53;;